createdAt,value
2022-12-06T00:01:25.413Z,10.82
2022-12-06T00:03:55.688Z,10.50
2022-12-06T00:06:27.588Z,11.65
2022-12-06T00:08:57.330Z,12.17
2022-12-06T00:11:27.143Z,12.20
2022-12-06T00:13:58.468Z,11.07
2022-12-06T00:16:27.683Z,12.57
2022-12-06T00:18:56.192Z,12.37
2022-12-06T00:21:28.265Z,11.73
2022-12-06T00:23:58.254Z,7.60
2022-12-06T00:26:26.915Z,7.37
2022-12-06T00:28:56.422Z,7.47
2022-12-06T00:31:26.609Z,7.13
2022-12-06T00:33:55.327Z,8.60
2022-12-06T00:36:26.611Z,6.72
2022-12-06T00:38:55.290Z,7.68
2022-12-06T00:41:25.364Z,8.02
2022-12-06T00:43:54.590Z,8.52
2022-12-06T00:46:25.209Z,8.40
2022-12-06T00:48:54.949Z,9.67
2022-12-06T00:51:25.765Z,9.23
2022-12-06T00:53:53.958Z,10.60
2022-12-06T00:56:22.436Z,9.48
2022-12-06T00:58:50.741Z,8.87
2022-12-06T01:01:21.726Z,8.82
2022-12-06T01:03:52.130Z,8.60
2022-12-06T01:06:22.923Z,8.90
2022-12-06T01:08:52.649Z,8.87
2022-12-06T01:11:20.718Z,8.82
2022-12-06T01:13:49.413Z,8.13
2022-12-06T01:16:19.141Z,8.32
2022-12-06T01:18:47.865Z,8.93
2022-12-06T01:21:17.797Z,7.15
2022-12-06T01:23:47.297Z,8.35
2022-12-06T01:26:19.069Z,8.47
2022-12-06T01:28:47.342Z,8.00
2022-12-06T01:31:16.489Z,7.60
2022-12-06T01:33:45.112Z,7.53
2022-12-06T01:36:18.405Z,7.83
2022-12-06T01:38:50.572Z,6.30
2022-12-06T01:41:20.896Z,7.15
2022-12-06T01:43:49.654Z,6.97
2022-12-06T01:46:27.225Z,6.72
2022-12-06T01:49:03.080Z,7.60
2022-12-06T01:51:31.469Z,6.68
2022-12-06T01:54:00.924Z,7.33
2022-12-06T01:56:30.829Z,6.85
2022-12-06T01:59:00.048Z,7.60
2022-12-06T02:01:30.900Z,6.82
2022-12-06T02:04:02.016Z,7.18
2022-12-06T02:06:31.800Z,7.18
2022-12-06T02:09:02.925Z,6.40
2022-12-06T02:11:35.414Z,6.60
2022-12-06T02:14:05.453Z,7.40
2022-12-06T02:16:46.835Z,6.10
2022-12-06T02:19:46.060Z,6.70
2022-12-06T02:22:19.896Z,14.60
2022-12-06T02:25:00.594Z,14.70
2022-12-06T02:27:45.499Z,19.87
2022-12-06T02:30:18.791Z,10.87
2022-12-06T02:32:55.261Z,10.43
2022-12-06T02:35:32.060Z,9.27
2022-12-06T02:38:11.452Z,8.53
2022-12-06T02:40:46.949Z,9.40
2022-12-06T02:43:18.810Z,8.17
2022-12-06T02:45:51.908Z,7.75
2022-12-06T02:48:22.872Z,7.50
2022-12-06T02:50:59.209Z,6.82
2022-12-06T02:53:29.223Z,7.80
2022-12-06T02:55:58.103Z,10.60
2022-12-06T02:58:26.144Z,12.10
2022-12-06T03:00:58.807Z,9.97
2022-12-06T03:03:57.035Z,12.10
2022-12-06T03:06:57.067Z,8.47
2022-12-06T03:09:37.507Z,6.03
2022-12-06T03:12:12.435Z,6.97
2022-12-06T03:14:50.245Z,7.50
2022-12-06T03:17:23.569Z,6.60
2022-12-06T03:19:59.083Z,6.85
2022-12-06T03:22:35.584Z,6.15
2022-12-06T03:25:07.965Z,6.33
2022-12-06T03:27:37.381Z,9.63
2022-12-06T03:30:08.337Z,6.30
2022-12-06T03:32:39.280Z,6.17
2022-12-06T03:35:11.786Z,6.47
2022-12-06T03:37:44.624Z,6.67
2022-12-06T03:40:19.967Z,5.63
2022-12-06T03:42:49.697Z,6.30
2022-12-06T03:45:18.917Z,6.13
2022-12-06T03:47:53.267Z,6.70
2022-12-06T03:50:29.097Z,7.25
2022-12-06T03:52:57.349Z,6.32
2022-12-06T03:55:25.474Z,6.50
2022-12-06T03:57:53.540Z,7.13
2022-12-06T04:00:21.862Z,6.78
2022-12-06T04:02:49.891Z,7.10
2022-12-06T04:05:18.592Z,6.73
2022-12-06T04:07:48.291Z,7.27
2022-12-06T04:10:16.440Z,6.50
2022-12-06T04:13:02.455Z,6.40
2022-12-06T04:15:32.142Z,6.33
2022-12-06T04:18:13.479Z,6.07
2022-12-06T04:21:03.977Z,6.87
2022-12-06T04:23:36.096Z,9.60
2022-12-06T04:26:06.010Z,11.47
2022-12-06T04:28:52.029Z,9.97
2022-12-06T04:31:37.672Z,11.47
2022-12-06T04:34:23.545Z,11.00
2022-12-06T04:37:09.242Z,11.48
2022-12-06T04:39:38.968Z,11.50
2022-12-06T04:42:24.712Z,11.23
2022-12-06T04:44:52.859Z,11.88
2022-12-06T04:47:20.911Z,11.15
2022-12-06T04:49:49.346Z,12.32
2022-12-06T04:52:18.172Z,11.40
2022-12-06T04:54:48.072Z,11.35
2022-12-06T04:57:17.678Z,11.20
2022-12-06T04:59:47.101Z,11.70
2022-12-06T05:02:16.700Z,12.98
2022-12-06T05:04:44.993Z,12.10
2022-12-06T05:07:13.354Z,13.10
2022-12-06T05:09:41.441Z,13.17
2022-12-06T05:12:10.945Z,13.50
2022-12-06T05:14:38.992Z,13.50
2022-12-06T05:17:07.008Z,12.40
2022-12-06T05:19:35.144Z,12.27
2022-12-06T05:22:03.205Z,15.05
2022-12-06T05:24:31.282Z,15.10
2022-12-06T05:26:59.510Z,13.48
2022-12-06T05:29:29.003Z,13.82
2022-12-06T05:31:57.072Z,13.00
2022-12-06T05:34:25.814Z,8.97
2022-12-06T05:36:53.835Z,7.80
2022-12-06T05:39:21.815Z,8.93
2022-12-06T05:41:49.908Z,8.37
2022-12-06T05:44:18.049Z,7.78
2022-12-06T05:46:47.427Z,8.10
2022-12-06T05:49:15.453Z,8.38
2022-12-06T05:51:44.246Z,7.85
2022-12-06T05:54:12.389Z,7.65
2022-12-06T05:56:40.797Z,7.85
2022-12-06T05:59:08.878Z,7.80
2022-12-06T06:01:37.043Z,8.50
2022-12-06T06:04:06.428Z,6.97
2022-12-06T06:06:34.681Z,7.70
2022-12-06T06:09:02.786Z,7.72
2022-12-06T06:11:31.507Z,8.48
2022-12-06T06:13:59.520Z,8.82
2022-12-06T06:16:27.658Z,7.07
2022-12-06T06:18:55.727Z,8.57
2022-12-06T06:21:25.137Z,7.60
2022-12-06T06:23:53.232Z,8.30
2022-12-06T06:26:21.358Z,8.60
2022-12-06T06:28:49.387Z,7.40
2022-12-06T06:31:17.508Z,8.10
2022-12-06T06:33:45.633Z,7.15
2022-12-06T06:36:14.016Z,7.78
2022-12-06T06:38:43.479Z,7.70
2022-12-06T06:41:12.250Z,7.93
2022-12-06T06:43:44.569Z,8.38
2022-12-06T06:46:12.752Z,7.50
2022-12-06T06:48:41.033Z,7.20
2022-12-06T06:51:10.560Z,7.03
2022-12-06T06:53:38.877Z,7.53
2022-12-06T06:56:09.023Z,8.15
2022-12-06T06:58:37.340Z,6.38
2022-12-06T07:01:07.027Z,7.43
2022-12-06T07:03:35.847Z,7.45
2022-12-06T07:06:07.827Z,7.20
2022-12-06T07:08:35.835Z,7.70
2022-12-06T07:11:04.367Z,7.13
2022-12-06T07:13:34.036Z,7.13
2022-12-06T07:16:05.049Z,6.97
2022-12-06T07:18:33.440Z,7.20
2022-12-06T07:21:04.107Z,7.45
2022-12-06T07:23:33.211Z,7.38
2022-12-06T07:26:03.074Z,7.35
2022-12-06T07:28:33.394Z,7.50
2022-12-06T07:31:09.463Z,7.97
2022-12-06T07:33:37.552Z,6.85
2022-12-06T07:36:14.124Z,6.80
2022-12-06T07:38:43.584Z,6.25
2022-12-06T07:41:30.405Z,6.93
2022-12-06T07:44:18.605Z,7.63
2022-12-06T07:46:47.428Z,6.30
2022-12-06T07:49:16.660Z,6.88
2022-12-06T07:51:45.012Z,6.83
2022-12-06T07:54:13.653Z,7.55
2022-12-06T07:56:41.899Z,6.70
2022-12-06T07:59:11.488Z,6.72
2022-12-06T08:01:39.810Z,6.53
2022-12-06T08:04:08.495Z,7.70
2022-12-06T08:06:36.928Z,7.55
2022-12-06T08:09:05.284Z,7.53
2022-12-06T08:11:33.440Z,7.30
2022-12-06T08:14:01.576Z,7.72
2022-12-06T08:16:31.050Z,7.50
2022-12-06T08:18:59.232Z,7.35
2022-12-06T08:21:27.245Z,7.10
2022-12-06T08:23:55.581Z,7.93
2022-12-06T08:26:24.897Z,6.70
2022-12-06T08:28:53.063Z,7.32
2022-12-06T08:31:23.326Z,6.88
2022-12-06T08:33:52.862Z,8.60
2022-12-06T08:36:22.588Z,7.57
2022-12-06T08:38:51.339Z,8.38
2022-12-06T08:41:38.460Z,8.23
2022-12-06T08:44:06.801Z,9.00
2022-12-06T08:46:35.760Z,9.32
2022-12-06T08:49:05.432Z,9.00
2022-12-06T08:51:35.433Z,9.00
2022-12-06T08:54:04.649Z,9.05
2022-12-06T08:56:32.997Z,8.98
2022-12-06T08:59:01.349Z,11.55
2022-12-06T09:01:37.472Z,11.35
2022-12-06T09:04:09.225Z,9.40
2022-12-06T09:06:39.664Z,9.80
2022-12-06T09:09:08.600Z,8.32
2022-12-06T09:11:36.969Z,8.52
2022-12-06T09:14:05.380Z,9.82
2022-12-06T09:16:33.565Z,10.65
2022-12-06T09:19:01.683Z,10.82
2022-12-06T09:21:32.857Z,8.88
2022-12-06T09:24:01.132Z,9.48
2022-12-06T09:26:29.854Z,8.55
2022-12-06T09:28:59.207Z,8.60
2022-12-06T09:31:27.338Z,8.77
2022-12-06T09:33:55.668Z,9.48
2022-12-06T09:36:26.066Z,10.10
2022-12-06T09:39:01.071Z,10.82
2022-12-06T09:41:51.606Z,9.00
2022-12-06T09:44:39.460Z,9.80
2022-12-06T09:47:22.233Z,9.73
2022-12-06T09:50:00.531Z,9.32
2022-12-06T09:52:57.470Z,9.23
2022-12-06T09:55:42.734Z,9.00
2022-12-06T09:58:19.802Z,9.05
2022-12-06T10:00:50.661Z,9.75
2022-12-06T10:03:44.514Z,9.93
2022-12-06T10:06:15.447Z,9.90
2022-12-06T10:08:57.680Z,9.18
2022-12-06T10:11:39.947Z,9.65
2022-12-06T10:14:17.973Z,8.90
2022-12-06T10:16:55.349Z,8.68
2022-12-06T10:19:35.370Z,9.23
2022-12-06T10:22:16.049Z,9.77
2022-12-06T10:24:57.107Z,8.27
2022-12-06T10:27:35.876Z,8.77
2022-12-06T10:30:09.019Z,10.30
2022-12-06T10:32:50.436Z,10.07
2022-12-06T10:35:22.616Z,9.73
2022-12-06T10:38:03.782Z,9.38
2022-12-06T10:40:38.068Z,11.63
2022-12-06T10:43:15.200Z,10.32
2022-12-06T10:46:09.222Z,9.30
2022-12-06T10:48:42.592Z,9.50
2022-12-06T10:51:16.014Z,10.18
2022-12-06T10:53:52.560Z,9.45
2022-12-06T10:56:24.824Z,12.82
2022-12-06T10:58:59.473Z,11.05
2022-12-06T11:01:29.660Z,12.38
2022-12-06T11:04:01.653Z,11.75
2022-12-06T11:06:35.218Z,11.35
2022-12-06T11:09:14.107Z,10.95
2022-12-06T11:11:44.848Z,9.27
2022-12-06T11:14:21.333Z,10.48
2022-12-06T11:16:55.399Z,9.45
2022-12-06T11:19:30.740Z,9.30
2022-12-06T11:22:05.188Z,9.63
2022-12-06T11:24:37.664Z,9.18
2022-12-06T11:27:13.473Z,9.40
2022-12-06T11:29:43.985Z,7.22
2022-12-06T11:32:15.156Z,9.10
2022-12-06T11:34:48.004Z,7.82
2022-12-06T11:37:18.947Z,7.88
2022-12-06T11:39:48.699Z,7.13
2022-12-06T11:42:22.436Z,5.78
2022-12-06T11:44:56.199Z,6.60
2022-12-06T11:47:24.753Z,6.30
2022-12-06T11:49:55.373Z,6.75
2022-12-06T11:52:28.969Z,7.20
2022-12-06T11:55:00.918Z,7.95
2022-12-06T11:57:45.435Z,7.50
2022-12-06T12:00:18.840Z,7.35
2022-12-06T12:02:48.883Z,7.40
2022-12-06T12:05:21.858Z,7.38
2022-12-06T12:07:55.038Z,6.65
2022-12-06T12:10:34.061Z,7.30
2022-12-06T12:13:39.090Z,6.95
2022-12-06T12:16:16.824Z,7.30
2022-12-06T12:18:52.434Z,6.95
2022-12-06T12:21:35.729Z,7.07
2022-12-06T12:24:04.711Z,6.88
2022-12-06T12:26:39.794Z,7.53
2022-12-06T12:29:16.884Z,6.70
2022-12-06T12:31:54.902Z,7.32
2022-12-06T12:34:25.926Z,7.93
2022-12-06T12:36:57.089Z,6.97
2022-12-06T12:39:31.425Z,8.50
2022-12-06T12:42:00.121Z,7.57
2022-12-06T12:44:39.686Z,7.28
2022-12-06T12:47:18.630Z,8.38
2022-12-06T12:50:01.462Z,8.90
2022-12-06T12:52:31.370Z,9.45
2022-12-06T12:55:02.638Z,12.68
2022-12-06T12:57:31.160Z,10.77
2022-12-06T12:59:59.235Z,9.35
2022-12-06T13:02:31.391Z,10.43
2022-12-06T13:05:32.164Z,11.95
2022-12-06T13:07:56.333Z,10.10
2022-12-06T13:10:31.990Z,8.90
2022-12-06T13:13:02.695Z,9.60
2022-12-06T13:15:36.671Z,9.32
2022-12-06T13:18:14.521Z,9.30
2022-12-06T13:20:42.586Z,8.30
2022-12-06T13:23:15.306Z,8.43
2022-12-06T13:25:48.616Z,9.38
2022-12-06T13:28:21.641Z,10.00
2022-12-06T13:31:06.530Z,10.20
2022-12-06T13:33:40.940Z,9.63
2022-12-06T13:36:12.904Z,9.75
2022-12-06T13:38:42.613Z,9.40
2022-12-06T13:41:13.892Z,9.82
2022-12-06T13:43:51.522Z,9.35
2022-12-06T13:46:37.577Z,8.85
2022-12-06T13:49:25.623Z,9.30
2022-12-06T13:51:53.899Z,9.02
2022-12-06T13:54:33.292Z,9.13
2022-12-06T13:57:04.798Z,9.02
2022-12-06T13:59:42.000Z,8.57
2022-12-06T14:02:44.073Z,8.50
2022-12-06T14:08:19.255Z,9.85
2022-12-06T14:10:47.360Z,7.75
2022-12-06T14:13:20.351Z,7.00
2022-12-06T14:15:53.208Z,7.18
2022-12-06T14:18:25.072Z,7.55
2022-12-06T14:20:55.055Z,8.05
2022-12-06T14:23:30.945Z,7.70
2022-12-06T14:26:21.537Z,7.32
2022-12-06T14:28:51.577Z,8.45
2022-12-06T14:31:26.982Z,7.20
2022-12-06T14:33:56.271Z,6.70
2022-12-06T14:36:28.387Z,8.13
2022-12-06T14:39:03.294Z,7.20
2022-12-06T14:41:53.204Z,8.20
2022-12-06T14:44:22.844Z,8.10
2022-12-06T14:46:50.952Z,8.07
2022-12-06T14:49:38.686Z,8.38
2022-12-06T14:52:21.023Z,8.70
2022-12-06T14:54:52.057Z,9.48
2022-12-06T14:57:31.148Z,9.13
2022-12-06T15:00:25.832Z,8.65
2022-12-06T15:03:01.903Z,8.02
2022-12-06T15:05:35.282Z,9.25
2022-12-06T15:08:19.073Z,10.13
2022-12-06T15:10:57.083Z,9.25
2022-12-06T15:13:24.415Z,9.90
2022-12-06T15:16:12.773Z,9.15
2022-12-06T15:18:42.431Z,8.80
2022-12-06T15:21:14.403Z,10.98
2022-12-06T15:23:49.834Z,10.23
2022-12-06T15:26:20.400Z,9.77
2022-12-06T15:28:49.102Z,9.63
2022-12-06T15:31:21.147Z,10.00
2022-12-06T15:33:50.147Z,10.73
2022-12-06T15:36:19.660Z,10.98
2022-12-06T15:38:47.723Z,12.07
2022-12-06T15:41:18.464Z,12.27
2022-12-06T15:43:48.720Z,15.85
2022-12-06T15:46:20.117Z,14.55
2022-12-06T15:48:48.424Z,11.73
2022-12-06T15:51:20.948Z,12.02
2022-12-06T15:53:50.941Z,11.07
2022-12-06T15:56:21.061Z,11.63
2022-12-06T15:58:51.667Z,12.35
2022-12-06T16:01:22.789Z,13.02
2022-12-06T16:03:51.862Z,11.98
2022-12-06T16:06:21.975Z,10.68
2022-12-06T16:08:50.434Z,12.60
2022-12-06T16:11:20.503Z,12.43
2022-12-06T16:13:50.587Z,11.30
2022-12-06T16:16:20.275Z,11.10
2022-12-06T16:18:49.557Z,10.85
2022-12-06T16:21:23.276Z,11.02
2022-12-06T16:24:13.539Z,12.23
2022-12-06T16:26:44.648Z,10.23
2022-12-06T16:29:17.771Z,10.02
2022-12-06T16:31:46.120Z,12.07
2022-12-06T16:34:14.811Z,9.50
2022-12-06T16:37:00.851Z,10.32
2022-12-06T16:39:29.624Z,10.60
2022-12-06T16:41:57.863Z,9.60
2022-12-06T16:44:27.215Z,9.27
2022-12-06T16:46:55.346Z,10.63
2022-12-06T16:52:12.857Z,11.55
2022-12-06T16:54:41.399Z,10.55
2022-12-06T16:57:10.285Z,11.80
2022-12-06T16:59:40.407Z,10.82
2022-12-06T17:02:26.204Z,10.80
2022-12-06T17:04:54.569Z,11.85
2022-12-06T17:07:22.661Z,10.65
2022-12-06T17:09:50.693Z,12.02
2022-12-06T17:12:19.257Z,10.60
2022-12-06T17:14:48.853Z,10.13
2022-12-06T17:17:20.166Z,10.40
2022-12-06T17:19:49.897Z,11.63
2022-12-06T17:22:18.881Z,11.70
2022-12-06T17:24:48.067Z,12.07
2022-12-06T17:27:16.736Z,12.00
2022-12-06T17:29:45.400Z,11.35
2022-12-06T17:32:15.168Z,10.98
2022-12-06T17:34:43.284Z,12.48
2022-12-06T17:37:11.847Z,11.18
2022-12-06T17:39:40.387Z,12.07
2022-12-06T17:42:26.361Z,13.30
2022-12-06T17:44:54.669Z,13.00
2022-12-06T17:47:24.727Z,14.32
2022-12-06T17:49:54.142Z,13.48
2022-12-06T17:52:22.143Z,14.98
2022-12-06T17:54:50.189Z,13.15
2022-12-06T17:57:19.328Z,12.70
2022-12-06T17:59:48.563Z,14.60
2022-12-06T18:02:19.279Z,13.90
2022-12-06T18:04:49.740Z,16.35
2022-12-06T18:07:19.258Z,15.25
2022-12-06T18:09:47.336Z,13.55
2022-12-06T18:12:16.845Z,14.07
2022-12-06T18:14:45.538Z,16.88
2022-12-06T18:17:14.132Z,17.33
2022-12-06T18:19:43.659Z,16.77
2022-12-06T18:22:13.039Z,16.77
2022-12-06T18:24:41.102Z,14.90
2022-12-06T18:27:09.153Z,15.05
2022-12-06T18:29:37.211Z,14.65
2022-12-06T18:32:06.400Z,15.13
2022-12-06T18:34:34.600Z,14.13
2022-12-06T18:37:02.679Z,16.23
2022-12-06T18:39:32.194Z,17.25
2022-12-06T18:42:00.901Z,16.15
2022-12-06T18:44:29.175Z,15.05
2022-12-06T18:46:57.216Z,14.68
2022-12-06T18:49:25.265Z,18.27
2022-12-06T18:51:53.309Z,15.73
2022-12-06T18:54:21.657Z,16.30
2022-12-06T18:56:51.048Z,16.48
2022-12-06T18:59:23.144Z,17.05
2022-12-06T19:01:54.083Z,16.25
2022-12-06T19:04:22.636Z,16.70
2022-12-06T19:06:50.686Z,17.63
2022-12-06T19:09:18.872Z,15.15
2022-12-06T19:11:47.853Z,18.92
2022-12-06T19:14:17.322Z,15.68
2022-12-06T19:16:47.001Z,16.33
2022-12-06T19:19:18.473Z,16.40
2022-12-06T19:21:47.303Z,17.05
2022-12-06T19:24:17.602Z,18.67
2022-12-06T19:26:45.917Z,14.60
2022-12-06T19:29:15.307Z,15.98
2022-12-06T19:31:45.702Z,15.25
2022-12-06T19:34:16.882Z,16.65
2022-12-06T19:36:45.331Z,17.13
2022-12-06T19:39:14.768Z,16.50
2022-12-06T19:42:00.291Z,17.65
2022-12-06T19:44:29.217Z,16.65
2022-12-06T19:46:58.755Z,17.92
2022-12-06T19:49:27.589Z,18.75
2022-12-06T19:51:55.661Z,17.95
2022-12-06T19:54:25.603Z,18.80
2022-12-06T19:56:56.807Z,16.27
2022-12-06T19:59:27.144Z,17.70
2022-12-06T20:01:58.030Z,20.33
2022-12-06T20:04:29.362Z,18.13
2022-12-06T20:06:57.638Z,18.25
2022-12-06T20:09:27.951Z,17.25
2022-12-06T20:12:02.373Z,18.02
2022-12-06T20:14:35.161Z,19.25
2022-12-06T20:17:04.298Z,17.67
2022-12-06T20:19:34.204Z,18.70
2022-12-06T20:22:02.279Z,18.55
2022-12-06T20:24:30.725Z,19.50
2022-12-06T20:26:58.757Z,21.30
2022-12-06T20:29:29.882Z,20.30
2022-12-06T20:32:00.021Z,20.50
2022-12-06T20:34:32.625Z,20.52
2022-12-06T20:37:04.019Z,21.52
2022-12-06T20:39:34.979Z,21.05
2022-12-06T20:42:04.429Z,20.17
2022-12-06T20:44:32.464Z,19.40
2022-12-06T20:47:00.570Z,23.20
2022-12-06T20:49:28.761Z,22.90
2022-12-06T20:51:57.962Z,20.75
2022-12-06T20:54:27.412Z,22.17
2022-12-06T20:56:55.443Z,22.45
2022-12-06T20:59:23.472Z,21.52
2022-12-06T21:01:51.576Z,21.25
2022-12-06T21:04:19.717Z,21.30
2022-12-06T21:06:47.775Z,21.45
2022-12-06T21:09:15.865Z,18.30
2022-12-06T21:11:45.221Z,18.88
2022-12-06T21:14:15.047Z,19.55
2022-12-06T21:16:44.291Z,17.48
2022-12-06T21:19:15.737Z,23.58
2022-12-06T21:21:47.256Z,22.30
2022-12-06T21:24:17.480Z,21.15
2022-12-06T21:26:47.620Z,18.23
2022-12-06T21:29:17.834Z,20.27
2022-12-06T21:31:46.021Z,22.08
2022-12-06T21:34:15.146Z,20.17
2022-12-06T21:36:43.714Z,20.35
2022-12-06T21:39:13.261Z,18.92
2022-12-06T21:41:41.942Z,18.77
2022-12-06T21:44:11.468Z,20.38
2022-12-06T21:46:39.737Z,20.30
2022-12-06T21:49:07.913Z,20.67
2022-12-06T21:51:35.983Z,19.92
2022-12-06T21:54:04.055Z,18.25
2022-12-06T21:56:33.976Z,19.73
2022-12-06T21:59:02.606Z,18.67
2022-12-06T22:01:32.920Z,17.98
2022-12-06T22:04:04.342Z,19.77
2022-12-06T22:06:33.457Z,18.30
2022-12-06T22:09:03.162Z,18.85
2022-12-06T22:11:31.819Z,16.13
2022-12-06T22:14:00.896Z,19.05
2022-12-06T22:16:30.782Z,19.02
2022-12-06T22:18:59.061Z,17.77
2022-12-06T22:21:31.373Z,17.90
2022-12-06T22:23:59.759Z,19.35
2022-12-06T22:26:30.696Z,18.50
2022-12-06T22:28:59.439Z,17.00
2022-12-06T22:31:29.844Z,18.20
2022-12-06T22:33:59.924Z,18.10
2022-12-06T22:36:30.358Z,17.35
2022-12-06T22:39:01.974Z,19.70
2022-12-06T22:41:30.622Z,18.83
2022-12-06T22:44:00.879Z,18.50
2022-12-06T22:46:30.394Z,17.67
2022-12-06T22:49:01.007Z,19.85
2022-12-06T22:51:30.239Z,17.77
2022-12-06T22:54:00.092Z,18.00
2022-12-06T22:56:29.014Z,18.75
2022-12-06T22:58:58.296Z,17.40
2022-12-06T23:01:28.893Z,17.65
2022-12-06T23:03:57.615Z,18.33
2022-12-06T23:06:28.164Z,16.60
2022-12-06T23:08:56.428Z,17.55
2022-12-06T23:11:26.526Z,16.88
2022-12-06T23:13:55.529Z,13.75
2022-12-06T23:16:25.613Z,13.98
2022-12-06T23:18:53.990Z,13.45
2022-12-06T23:21:24.153Z,13.55
2022-12-06T23:23:55.241Z,14.13
2022-12-06T23:26:25.176Z,13.65
2022-12-06T23:28:53.813Z,13.48
2022-12-06T23:31:25.592Z,12.95
2022-12-06T23:33:54.831Z,14.07
2022-12-06T23:36:24.809Z,13.80
2022-12-06T23:38:54.284Z,14.10
2022-12-06T23:41:24.419Z,14.00
2022-12-06T23:43:53.799Z,12.35
2022-12-06T23:46:24.662Z,13.27
2022-12-06T23:48:53.668Z,13.60
2022-12-06T23:51:22.925Z,14.68
2022-12-06T23:53:52.577Z,15.32
2022-12-06T23:56:22.887Z,15.65
2022-12-06T23:58:52.173Z,14.75
